Time;durP1;ratioP1;P1;durP2;ratioP2;P2;SDS_P1;SDS_P2;PMS_P1;PMS_P2;Temp;Humidity;BMP_temperature;BMP_pressure;BME280_temperature;BME280_humidity;BME280_pressure;Samples;Min_cycle;Max_cycle;Signal;HPM_P1;HPM_P2
2023/05/16 04:32:19;;;;;;;86.77;51.37;;;;;;;10.85;100.00;95331.97;6032481;23;20201;-88
2023/05/16 04:35:34;;;;;;;82.33;48.10;;;;;;;10.88;100.00;95327.31;6042479;23;20798;-83
2023/05/16 04:48:10;;;;;;;74.07;43.70;;;;;;;10.84;100.00;95336.38;6040139;23;20232;-82
2023/05/16 04:50:36;;;;;;;74.37;45.17;;;;;;;10.99;100.00;95334.81;6006352;23;20196;-82
2023/05/16 04:53:07;;;;;;;73.93;43.30;;;;;;;10.82;100.00;95332.28;6044982;23;20300;-81
2023/05/16 04:55:35;;;;;;;66.83;41.73;;;;;;;10.63;100.00;95334.13;6136825;23;20162;-83
2023/05/16 04:58:05;;;;;;;62.63;40.20;;;;;;;10.70;100.00;95337.75;6162998;23;20277;-83
2023/05/16 05:00:31;;;;;;;72.93;42.30;;;;;;;10.81;100.00;95330.66;6163398;23;20182;-83
2023/05/16 05:02:56;;;;;;;65.73;39.73;;;;;;;10.80;100.00;95336.84;6163954;23;20528;-81
2023/05/16 05:05:21;;;;;;;70.00;37.63;;;;;;;10.67;100.00;95342.44;6164656;23;20302;-80
2023/05/16 05:07:47;;;;;;;56.90;38.00;;;;;;;10.80;100.00;95345.44;6187192;22;20224;-83
2023/05/16 05:10:18;;;;;;;51.27;35.47;;;;;;;10.68;100.00;95344.06;6287823;22;20498;-81
2023/05/16 05:12:44;;;;;;;57.93;37.30;;;;;;;10.58;100.00;95356.31;6262254;22;20175;-82
2023/05/16 05:15:43;;;;;;;66.43;37.47;;;;;;;10.70;100.00;95357.72;6287166;22;20183;-84
2023/05/16 05:21:37;;;;;;;55.17;36.27;;;;;;;10.74;100.00;95354.66;6313074;22;20285;-84
2023/05/16 05:24:03;;;;;;;55.10;35.83;;;;;;;10.67;100.00;95365.81;6281771;22;20217;-83
2023/05/16 05:26:33;;;;;;;69.37;36.37;;;;;;;10.67;100.00;95366.63;6311205;22;20155;-83
2023/05/16 05:29:40;;;;;;;61.03;35.07;;;;;;;10.72;100.00;95372.19;6283912;22;20160;-83
2023/05/16 05:32:14;;;;;;;181.97;40.30;;;;;;;10.60;100.00;95372.56;6303318;22;20258;-84
2023/05/16 05:35:14;;;;;;;339.80;46.00;;;;;;;10.53;100.00;95371.56;6307668;22;20473;-85
2023/05/16 05:37:45;;;;;;;112.30;35.77;;;;;;;10.59;100.00;95368.34;6296915;22;20151;-89
2023/05/16 06:24:09;;;;;;;23.83;16.53;;;;;;;10.24;100.00;95401.16;6308295;22;20210;-85
2023/05/16 06:26:35;;;;;;;20.37;15.00;;;;;;;10.23;100.00;95404.72;6256364;22;20159;-86
2023/05/16 06:29:12;;;;;;;20.90;14.63;;;;;;;10.06;100.00;95406.31;6256117;22;20219;-90
2023/05/16 06:39:35;;;;;;;25.70;18.27;;;;;;;10.18;100.00;95412.94;6153981;23;20257;-87
2023/05/16 06:49:02;;;;;;;;;;;;;;;;;;;;;
2023/05/16 07:02:25;;;;;;;37.27;25.03;;;;;;;10.02;100.00;95424.94;6300252;22;20195;-85
2023/05/16 07:38:13;;;;;;;110.60;30.97;;;;;;;10.02;100.00;95432.72;6303012;22;20205;-84
2023/05/16 07:58:49;;;;;;;;;;;;;;;;;;;;;
2023/05/16 08:08:03;;;;;;;55.50;31.10;;;;;;;9.97;100.00;95448.72;5871294;24;20169;-86
2023/05/16 08:18:15;;;;;;;51.93;29.40;;;;;;;10.30;100.00;95459.47;6216859;22;20862;-86
2023/05/16 08:20:49;;;;;;;55.53;28.83;;;;;;;10.17;100.00;95459.81;6163900;23;20211;-84
2023/05/16 08:23:30;;;;;;;79.00;28.43;;;;;;;10.30;100.00;95455.06;6163464;23;20192;-86
2023/05/16 08:25:58;;;;;;;47.77;28.20;;;;;;;10.20;100.00;95454.31;6163095;23;20638;-84
2023/05/16 08:50:11;;;;;;;37.87;23.70;;;;;;;10.27;100.00;95449.38;6244601;22;20238;-86
2023/05/16 08:53:31;;;;;;;;;;;;;;;;;;;;;
2023/05/16 09:00:12;;;;;;;29.27;20.57;;;;;;;10.49;100.00;95461.91;6124246;23;20308;-85
2023/05/16 09:03:01;;;;;;;30.83;21.13;;;;;;;10.39;100.00;95461.97;6124032;23;20171;-87
2023/05/16 09:05:39;;;;;;;31.57;21.77;;;;;;;10.51;100.00;95462.56;6124125;23;20160;-86
2023/05/16 09:09:06;;;;;;;30.13;21.27;;;;;;;10.32;100.00;95473.91;6117075;23;20167;-87
2023/05/16 09:15:16;;;;;;;29.07;20.23;;;;;;;10.73;100.00;95469.09;6123242;23;20178;-87
2023/05/16 09:18:25;;;;;;;27.27;19.40;;;;;;;10.66;100.00;95474.06;6155438;23;20162;-88
2023/05/16 09:20:52;;;;;;;22.23;18.60;;;;;;;10.61;100.00;95473.72;6083258;23;20208;-85
2023/05/16 09:23:23;;;;;;;22.13;16.63;;;;;;;10.76;100.00;95479.97;6068069;23;20167;-85
2023/05/16 09:25:52;;;;;;;23.83;16.70;;;;;;;10.46;100.00;95468.22;6070089;23;20569;-84
2023/05/16 09:28:30;;;;;;;18.40;14.90;;;;;;;10.57;100.00;95479.34;6046454;23;20491;-87
2023/05/16 09:30:58;;;;;;;21.17;14.97;;;;;;;10.54;100.00;95484.84;6071159;23;20183;-87
2023/05/16 09:33:29;;;;;;;17.87;13.83;;;;;;;10.57;100.00;95480.16;6072303;23;20181;-86
2023/05/16 09:39:44;;;;;;;13.97;11.63;;;;;;;10.64;100.00;95480.38;5980851;23;20202;-87
2023/05/16 09:42:37;;;;;;;13.20;11.07;;;;;;;10.48;100.00;95487.03;5959019;24;20194;-87
2023/05/16 09:45:05;;;;;;;12.93;10.73;;;;;;;10.57;100.00;95487.94;5958646;24;20167;-86
2023/05/16 09:47:49;;;;;;;11.40;10.23;;;;;;;10.61;100.00;95485.88;5956210;24;20190;-87
2023/05/16 09:50:54;;;;;;;12.30;10.57;;;;;;;10.47;100.00;95485.41;5952424;24;20188;-88
2023/05/16 09:53:54;;;;;;;11.77;10.13;;;;;;;10.47;100.00;95485.41;6062797;23;20215;-88
2023/05/16 09:57:09;;;;;;;11.70;10.50;;;;;;;10.47;100.00;95484.59;6084354;23;20219;-88
2023/05/16 09:59:36;;;;;;;11.33;9.33;;;;;;;10.46;100.00;95483.78;6091031;23;20160;-86
2023/05/16 10:02:35;;;;;;;10.00;8.67;;;;;;;10.29;100.00;95487.19;6098937;23;20175;-85
2023/05/16 10:07:50;;;;;;;9.13;7.83;;;;;;;10.62;99.81;95479.72;6125561;23;20664;-86
2023/05/16 10:10:22;;;;;;;8.70;7.67;;;;;;;10.60;99.81;95479.03;6102107;23;20330;-86
2023/05/16 10:13:01;;;;;;;11.17;7.77;;;;;;;10.53;100.00;95483.22;6099815;23;20192;-86
2023/05/16 10:15:27;;;;;;;10.80;7.93;;;;;;;10.62;100.00;95492.69;6111363;23;20270;-87
2023/05/16 10:17:59;;;;;;;8.77;7.17;;;;;;;10.45;100.00;95489.94;6194014;23;20161;-87
2023/05/16 10:20:27;;;;;;;6.27;5.67;;;;;;;10.62;98.19;95483.13;6220788;23;20177;-86
2023/05/16 10:23:35;;;;;;;6.97;5.67;;;;;;;10.63;97.39;95486.53;6221624;23;20229;-87
2023/05/16 10:26:48;;;;;;;6.40;5.70;;;;;;;10.68;97.06;95492.09;6222428;23;20153;-88
2023/05/16 10:29:16;;;;;;;5.73;4.90;;;;;;;10.44;95.86;95488.31;6048016;23;20626;-86
2023/05/16 10:31:42;;;;;;;6.33;4.80;;;;;;;10.39;96.11;95481.94;6047021;23;20177;-86
2023/05/16 10:35:03;;;;;;;6.90;5.30;;;;;;;10.76;95.01;95494.75;6071853;23;20223;-86
2023/05/16 10:37:30;;;;;;;5.60;4.33;;;;;;;11.02;93.42;95493.00;5985298;23;20683;-86
2023/05/16 10:40:08;;;;;;;8.23;4.83;;;;;;;11.17;92.28;95493.28;5986069;23;20186;-86
2023/05/16 10:42:33;;;;;;;4.20;3.70;;;;;;;11.03;90.75;95497.22;5963741;23;20159;-87
2023/05/16 10:45:15;;;;;;;6.07;4.10;;;;;;;11.29;91.18;95493.84;6009506;23;20167;-87
2023/05/16 10:47:56;;;;;;;4.97;4.27;;;;;;;11.13;91.22;95494.56;6035995;23;20155;-87
2023/05/16 10:50:42;;;;;;;4.67;4.03;;;;;;;10.97;90.54;95497.84;6013218;23;20198;-88
2023/05/16 10:53:32;;;;;;;4.87;4.30;;;;;;;11.06;91.85;95494.34;5989960;23;20190;-88
2023/05/16 10:55:57;;;;;;;3.60;3.30;;;;;;;11.17;91.12;95500.25;6011528;23;20201;-86
2023/05/16 10:58:33;;;;;;;4.60;4.10;;;;;;;11.29;91.19;95494.66;5984980;23;20194;-85
2023/05/16 11:01:14;;;;;;;5.33;4.77;;;;;;;11.11;92.38;95498.25;5985305;23;20296;-86
2023/05/16 11:04:01;;;;;;;6.80;4.43;;;;;;;11.02;92.26;95490.41;6006942;23;20672;-85
2023/05/16 11:06:43;;;;;;;5.70;4.73;;;;;;;10.97;92.57;95499.66;6154831;23;20163;-86
2023/05/16 11:09:14;;;;;;;5.33;4.53;;;;;;;10.78;93.29;95498.84;6107435;23;20271;-87
2023/05/16 11:11:52;;;;;;;5.73;4.40;;;;;;;10.67;94.33;95503.44;6155966;23;20191;-87
2023/05/16 11:14:22;;;;;;;7.50;4.90;;;;;;;10.61;95.46;95504.06;6200138;23;20173;-85
2023/05/16 11:17:11;;;;;;;8.57;6.00;;;;;;;10.35;96.02;95507.38;6194395;23;20162;-83
2023/05/16 11:19:44;;;;;;;6.60;5.87;;;;;;;10.04;97.15;95513.81;6221636;22;20157;-82
2023/05/16 11:22:18;;;;;;;6.70;6.00;;;;;;;10.24;96.52;95510.16;6246468;23;20149;-82
2023/05/16 11:24:51;;;;;;;6.83;6.13;;;;;;;10.32;95.56;95512.84;6219693;23;20157;-83
2023/05/16 11:27:32;;;;;;;6.97;5.77;;;;;;;10.42;95.12;95513.63;6219228;23;20149;-84
2023/05/16 11:30:04;;;;;;;7.03;5.73;;;;;;;10.76;93.71;95525.91;6193238;22;20508;-84
2023/05/16 11:32:30;;;;;;;6.53;5.70;;;;;;;10.71;93.19;95526.38;6218100;23;20260;-82
2023/05/16 11:34:57;;;;;;;6.83;5.40;;;;;;;10.39;93.90;95516.50;6191501;23;20247;-83
2023/05/16 11:37:22;;;;;;;7.47;5.97;;;;;;;10.57;93.88;95523.47;6192061;23;20168;-83
2023/05/16 11:39:47;;;;;;;7.37;4.40;;;;;;;10.45;94.37;95525.47;6217538;22;20157;-83
2023/05/16 11:42:13;;;;;;;4.57;4.17;;;;;;;10.59;93.94;95534.53;6218107;23;20153;-82
2023/05/16 11:44:39;;;;;;;3.80;3.10;;;;;;;10.09;93.62;95527.19;6190645;23;20157;-83
2023/05/16 11:47:05;;;;;;;3.93;3.00;;;;;;;10.17;95.35;95529.88;6217183;23;20156;-84
2023/05/16 11:49:31;;;;;;;3.37;3.07;;;;;;;10.33;93.37;95531.81;6219743;23;20153;-82
2023/05/16 11:51:56;;;;;;;3.87;2.70;;;;;;;10.07;93.98;95544.66;6219334;23;20192;-85
2023/05/16 11:54:22;;;;;;;5.37;2.73;;;;;;;10.05;93.83;95546.56;6220715;23;20224;-81
2023/05/16 11:56:49;;;;;;;3.63;2.77;;;;;;;9.92;94.26;95546.91;6218170;23;20231;-82
2023/05/16 11:59:14;;;;;;;4.37;2.97;;;;;;;9.89;94.14;95544.59;6218991;23;20153;-82
2023/05/16 12:01:40;;;;;;;4.80;2.57;;;;;;;10.05;94.04;95549.16;6212214;23;20270;-82
2023/05/16 12:04:15;;;;;;;3.90;2.77;;;;;;;9.95;94.08;95546.63;6187722;23;20172;-83
2023/05/16 12:06:44;;;;;;;2.80;2.60;;;;;;;9.96;93.65;95557.81;6188838;23;20634;-84
2023/05/16 12:09:13;;;;;;;4.47;2.70;;;;;;;9.91;94.19;95555.66;6192495;23;20157;-83
2023/05/16 12:11:41;;;;;;;5.20;2.60;;;;;;;9.98;93.68;95558.47;6235803;23;20193;-82
2023/05/16 12:14:08;;;;;;;3.70;2.50;;;;;;;9.96;93.46;95563.81;6215436;23;20184;-83
2023/05/16 12:16:35;;;;;;;4.03;2.33;;;;;;;10.05;92.05;95562.97;6240367;23;20231;-83
2023/05/16 12:19:01;;;;;;;4.10;2.53;;;;;;;9.92;92.42;95565.88;6215419;23;20165;-82
2023/05/16 12:21:26;;;;;;;3.20;2.90;;;;;;;9.76;92.78;95581.22;6238246;22;20205;-82
2023/05/16 12:23:56;;;;;;;3.33;2.70;;;;;;;9.59;93.50;95582.78;6215551;23;20153;-83
2023/05/16 12:26:32;;;;;;;3.10;2.77;;;;;;;9.64;93.60;95583.19;6239580;23;20470;-84
2023/05/16 12:29:01;;;;;;;3.90;3.03;;;;;;;9.60;92.87;95578.41;6216912;23;20200;-82
2023/05/16 12:31:27;;;;;;;5.60;2.90;;;;;;;9.50;92.52;95578.44;6240608;22;20266;-85
2023/05/16 12:33:54;;;;;;;2.80;2.50;;;;;;;9.86;91.70;95583.78;6241093;23;20693;-82
2023/05/16 12:36:19;;;;;;;2.60;2.33;;;;;;;9.83;91.20;95582.31;6217809;23;20228;-82
2023/05/16 12:38:46;;;;;;;3.20;2.90;;;;;;;9.68;92.18;95585.50;6221152;23;20180;-84
2023/05/16 12:41:16;;;;;;;3.03;2.70;;;;;;;9.85;91.51;95592.53;6219542;23;20192;-83
2023/05/16 12:43:42;;;;;;;5.03;3.30;;;;;;;9.83;91.27;95595.28;6245489;23;20180;-79
2023/05/16 12:46:10;;;;;;;3.50;3.20;;;;;;;10.00;90.74;95583.34;6243851;23;20161;-81
2023/05/16 12:48:36;;;;;;;5.20;2.97;;;;;;;9.96;89.85;95587.16;6244444;23;20462;-81
2023/05/16 12:51:17;;;;;;;3.83;2.53;;;;;;;10.20;89.23;95591.84;6244842;22;20219;-81
2023/05/16 12:53:45;;;;;;;3.93;2.73;;;;;;;10.09;89.56;95597.22;6246627;23;20192;-82
2023/05/16 12:56:11;;;;;;;2.90;2.60;;;;;;;10.24;89.32;95588.03;6219457;23;20191;-79
2023/05/16 12:58:37;;;;;;;4.50;3.00;;;;;;;10.19;89.09;95582.44;6219348;23;20238;-81
2023/05/16 13:01:03;;;;;;;3.70;3.30;;;;;;;10.34;88.34;95580.22;6249464;22;20548;-79
2023/05/16 13:03:29;;;;;;;3.37;3.07;;;;;;;10.38;88.12;95581.53;6251270;23;20176;-80
2023/05/16 13:05:54;;;;;;;3.43;3.13;;;;;;;10.48;87.85;95579.69;6250222;23;20158;-80
2023/05/16 13:08:19;;;;;;;3.30;2.90;;;;;;;10.38;88.74;95587.53;6250429;23;20498;-80
2023/05/16 13:10:45;;;;;;;4.63;3.27;;;;;;;10.42;88.17;95590.66;6248913;22;20189;-79
2023/05/16 13:13:10;;;;;;;2.83;2.60;;;;;;;10.45;87.91;95591.19;6247691;23;20180;-81
2023/05/16 13:15:36;;;;;;;3.60;2.70;;;;;;;10.38;88.06;95590.13;6247513;23;20165;-82
2023/05/16 13:18:02;;;;;;;3.50;3.20;;;;;;;10.36;88.42;95588.66;6222454;23;20540;-80
2023/05/16 13:20:27;;;;;;;5.57;3.50;;;;;;;10.36;87.68;95588.66;6246462;22;20180;-83
2023/05/16 13:22:53;;;;;;;6.03;3.77;;;;;;;10.30;88.62;95586.63;6224232;23;20150;-81
2023/05/16 13:25:18;;;;;;;4.20;3.07;;;;;;;10.41;87.30;95589.84;6249414;23;20165;-81
2023/05/16 13:27:43;;;;;;;3.33;3.03;;;;;;;10.43;87.12;95590.53;6246213;23;20218;-83
2023/05/16 13:30:09;;;;;;;4.03;3.37;;;;;;;10.45;87.01;95587.78;6220635;23;20203;-80
2023/05/16 13:32:34;;;;;;;5.03;4.17;;;;;;;10.14;88.25;95587.22;6245139;23;20191;-82
2023/05/16 13:34:59;;;;;;;3.23;3.00;;;;;;;10.16;88.58;95590.50;6246616;23;20165;-82
2023/05/16 13:37:25;;;;;;;5.47;2.90;;;;;;;10.60;86.77;95591.53;6244940;23;20160;-81
2023/05/16 13:39:51;;;;;;;4.73;3.67;;;;;;;10.44;85.16;95597.34;6245081;22;20164;-80
2023/05/16 13:42:16;;;;;;;4.17;3.67;;;;;;;10.52;84.18;95595.81;6219771;23;20181;-81
2023/05/16 13:44:43;;;;;;;3.80;3.20;;;;;;;10.56;83.48;95597.16;6218730;23;20611;-81
2023/05/16 13:47:08;;;;;;;5.57;3.27;;;;;;;10.46;84.19;95590.22;6245622;23;20157;-81
2023/05/16 13:49:34;;;;;;;9.83;3.40;;;;;;;10.61;83.30;95594.94;6246335;23;20157;-81
2023/05/16 13:52:00;;;;;;;5.00;3.23;;;;;;;10.50;83.54;95596.75;6244549;22;20286;-80
2023/05/16 13:54:25;;;;;;;3.20;2.67;;;;;;;10.42;82.41;95594.09;6245833;23;20192;-79
2023/05/16 13:56:51;;;;;;;3.97;3.20;;;;;;;10.32;83.02;95582.94;6245582;23;20187;-81
2023/05/16 13:59:16;;;;;;;3.70;2.63;;;;;;;10.37;84.02;95592.88;6244744;23;20206;-82
2023/05/16 14:01:41;;;;;;;5.37;3.43;;;;;;;10.44;82.69;95601.75;6245327;22;20199;-81
2023/05/16 14:04:07;;;;;;;7.70;3.57;;;;;;;10.38;82.71;95600.53;6244114;23;20158;-82
2023/05/16 14:06:32;;;;;;;3.57;2.80;;;;;;;10.38;82.61;95592.75;6245646;23;20645;-81
2023/05/16 14:08:58;;;;;;;4.63;3.37;;;;;;;10.64;82.62;95605.84;6244962;23;20497;-82
2023/05/16 14:11:26;;;;;;;5.47;2.67;;;;;;;10.29;83.67;95604.00;6247071;22;20209;-83
2023/05/16 14:13:52;;;;;;;5.37;2.80;;;;;;;10.37;84.18;95608.47;6244151;23;20227;-86
2023/05/16 14:16:18;;;;;;;6.33;3.20;;;;;;;10.51;84.25;95620.94;6217943;23;20668;-85
2023/05/16 14:18:43;;;;;;;4.50;3.07;;;;;;;10.62;84.32;95617.34;6220037;23;20158;-85
2023/05/16 14:21:09;;;;;;;4.30;2.90;;;;;;;10.44;83.81;95615.53;6218281;23;20188;-85
2023/05/16 14:23:34;;;;;;;4.67;3.10;;;;;;;10.33;83.90;95613.09;6245792;23;20157;-85
2023/05/16 14:25:59;;;;;;;8.10;3.43;;;;;;;9.94;84.95;95610.66;6244091;23;20185;-85
2023/05/16 14:28:25;;;;;;;8.07;3.80;;;;;;;10.20;84.89;95623.00;6246570;23;20153;-84
2023/05/16 14:30:50;;;;;;;9.00;3.80;;;;;;;10.40;84.05;95616.75;6245032;22;20173;-82
2023/05/16 14:33:15;;;;;;;6.07;3.30;;;;;;;10.62;83.08;95606.97;6245164;23;20173;-86
2023/05/16 14:35:41;;;;;;;4.43;3.20;;;;;;;10.67;81.63;95612.50;6245550;23;20513;-84
2023/05/16 14:38:06;;;;;;;7.27;3.70;;;;;;;10.52;81.74;95606.22;6244616;23;20172;-83
2023/05/16 14:40:32;;;;;;;5.83;3.63;;;;;;;10.55;81.08;95611.09;6245358;22;20169;-84
2023/05/16 14:42:58;;;;;;;5.47;3.40;;;;;;;10.73;80.52;95623.16;6247922;23;20191;-85
2023/05/16 14:45:23;;;;;;;6.10;3.80;;;;;;;10.81;80.20;95619.00;6245565;23;20629;-84
2023/05/16 14:47:48;;;;;;;8.67;4.10;;;;;;;10.55;80.87;95627.50;6243302;23;20181;-85
2023/05/16 14:50:14;;;;;;;6.70;4.60;;;;;;;10.43;80.07;95624.28;6246359;22;20180;-85
2023/05/16 14:52:39;;;;;;;6.23;3.90;;;;;;;10.35;79.67;95616.41;6244863;23;20238;-85
2023/05/16 14:55:05;;;;;;;6.87;5.13;;;;;;;10.54;78.39;95625.88;6219417;23;20153;-84
2023/05/16 14:57:31;;;;;;;8.50;5.70;;;;;;;10.48;79.77;95627.25;6243846;23;20245;-83
2023/05/16 14:59:57;;;;;;;7.73;4.20;;;;;;;10.12;80.76;95633.25;6246039;22;20153;-84
2023/05/16 15:02:22;;;;;;;6.57;4.30;;;;;;;10.32;78.56;95624.44;6218211;23;20878;-86
2023/05/16 15:05:01;;;;;;;6.80;3.87;;;;;;;10.43;78.63;95633.84;6244603;23;20229;-86
2023/05/16 15:08:14;;;;;;;9.10;4.00;;;;;;;10.46;78.94;95631.78;6219307;23;20165;-85
2023/05/16 15:14:54;;;;;;;9.10;3.77;;;;;;;10.49;76.39;95635.84;6072445;23;20189;-83
2023/05/16 15:21:31;;;;;;;5.03;3.03;;;;;;;10.39;76.77;95635.91;6120417;23;20183;-85
2023/05/16 15:24:53;;;;;;;5.23;3.20;;;;;;;10.18;77.96;95638.72;6121421;23;20255;-86
2023/05/16 15:27:53;;;;;;;;;;;;;;;;;;;;;
2023/05/16 15:38:11;;;;;;;7.27;2.63;;;;;;;10.53;75.07;95637.22;6033721;23;20173;-86
2023/05/16 15:41:07;;;;;;;8.60;3.33;;;;;;;10.56;75.25;95643.88;5926770;24;20266;-85
2023/05/16 15:47:54;;;;;;;7.70;2.90;;;;;;;10.66;74.41;95647.25;5832732;24;20225;-86
2023/05/16 15:50:43;;;;;;;7.63;3.37;;;;;;;10.66;74.06;95642.06;5795831;24;20183;-85
2023/05/16 15:57:04;;;;;;;8.77;3.00;;;;;;;10.48;73.18;95653.22;5819596;24;20551;-85
2023/05/16 16:03:31;;;;;;;6.47;2.97;;;;;;;10.56;73.41;95643.88;5843269;24;20182;-85
2023/05/16 16:06:46;;;;;;;5.27;3.00;;;;;;;10.21;71.94;95653.16;5820205;24;20239;-86
2023/05/16 16:09:46;;;;;;;7.50;2.70;;;;;;;10.38;71.27;95652.44;5756322;24;20188;-86
2023/05/16 16:16:15;;;;;;;5.33;2.50;;;;;;;10.83;68.42;95659.44;5772197;24;20615;-86
2023/05/16 16:22:38;;;;;;;7.83;2.50;;;;;;;10.71;67.61;95653.66;5850682;24;20166;-84
2023/05/16 16:25:37;;;;;;;4.10;2.43;;;;;;;10.91;66.40;95659.53;5947482;24;20583;-85
2023/05/16 16:32:30;;;;;;;4.97;2.30;;;;;;;10.98;64.78;95660.59;5926566;24;20188;-86
2023/05/16 16:35:40;;;;;;;3.13;1.97;;;;;;;10.97;65.41;95663.34;5869623;24;20226;-85
2023/05/16 16:42:00;;;;;;;5.23;3.40;;;;;;;10.73;64.47;95662.09;5974871;23;20191;-86
2023/05/16 16:45:07;;;;;;;4.87;2.53;;;;;;;10.41;63.60;95675.50;5964461;24;20230;-86
2023/05/16 16:48:12;;;;;;;5.03;1.90;;;;;;;10.68;63.82;95668.69;5976788;24;20193;-85
2023/05/16 16:51:24;;;;;;;4.90;2.30;;;;;;;10.69;63.12;95665.13;6002372;23;20295;-85
2023/05/16 16:58:00;;;;;;;11.30;2.27;;;;;;;10.65;62.25;95663.78;6121688;23;20210;-86
2023/05/16 17:00:48;;;;;;;7.20;1.90;;;;;;;10.58;61.75;95673.13;6123083;23;20184;-86
2023/05/16 17:07:41;;;;;;;5.23;3.17;;;;;;;10.59;62.28;95685.13;6064867;23;20161;-83
2023/05/16 17:15:00;;;;;;;6.33;2.47;;;;;;;10.80;60.53;95675.34;6065896;23;20271;-84
2023/05/16 17:18:14;;;;;;;7.40;2.07;;;;;;;10.65;60.91;95685.38;6012655;23;20169;-86
2023/05/16 17:21:39;;;;;;;4.33;2.03;;;;;;;10.74;60.14;95688.91;6033994;23;20278;-85
2023/05/16 17:27:57;;;;;;;6.37;1.70;;;;;;;10.94;60.48;95679.19;6014349;23;20197;-86
2023/05/16 17:31:04;;;;;;;4.37;1.50;;;;;;;10.93;60.87;95687.97;5893537;24;20192;-86
2023/05/16 17:34:27;;;;;;;7.87;2.20;;;;;;;10.98;61.99;95693.56;5870835;24;20557;-86
2023/05/16 17:37:51;;;;;;;;;;;;;;;;;;;;;
2023/05/16 17:43:46;;;;;;;6.93;4.37;;;;;;;10.92;61.86;95694.13;5850197;24;20197;-82
2023/05/16 17:46:14;;;;;;;8.00;2.60;;;;;;;10.97;61.61;95690.13;5860009;24;20615;-88
2023/05/16 17:48:44;;;;;;;5.70;1.90;;;;;;;10.87;61.55;95688.56;5859361;24;20195;-85
2023/05/16 17:51:24;;;;;;;6.13;2.27;;;;;;;10.89;62.07;95691.81;5879227;24;20240;-85
2023/05/16 17:53:57;;;;;;;6.67;2.13;;;;;;;10.84;61.96;95694.03;5874786;24;20200;-87
2023/05/16 17:56:39;;;;;;;;;;;;;;;;;;;;;
2023/05/16 17:59:15;;;;;;;5.90;1.70;;;;;;;10.89;63.15;95697.03;5896850;24;20262;-86
2023/05/16 18:01:44;;;;;;;8.47;2.20;;;;;;;10.82;63.57;95701.97;5873659;24;20648;-86
2023/05/16 18:04:12;;;;;;;5.40;2.00;;;;;;;10.86;62.52;95700.72;5871440;24;20161;-85
2023/05/16 18:06:37;;;;;;;7.40;2.00;;;;;;;10.82;62.37;95709.78;5938885;23;20579;-86
2023/05/16 18:09:08;;;;;;;4.53;1.83;;;;;;;10.85;62.88;95714.66;6018574;23;20192;-85
2023/05/16 18:11:34;;;;;;;7.80;2.27;;;;;;;10.94;62.25;95716.38;6069732;23;20197;-86
2023/05/16 18:14:01;;;;;;;3.30;1.93;;;;;;;10.78;62.07;95717.03;6049267;23;20193;-86
2023/05/16 18:16:27;;;;;;;6.20;2.20;;;;;;;10.81;62.08;95720.31;6047855;23;20164;-85
2023/05/16 18:18:52;;;;;;;5.53;2.00;;;;;;;10.84;61.13;95723.44;6048289;23;20559;-85
2023/05/16 18:21:17;;;;;;;5.83;2.77;;;;;;;10.92;61.05;95718.31;6183074;23;20243;-84
2023/05/16 18:23:43;;;;;;;6.93;2.00;;;;;;;10.89;60.41;95728.19;6222209;23;20492;-85
2023/05/16 18:26:08;;;;;;;7.27;1.90;;;;;;;10.69;61.34;95727.47;6221544;23;20149;-85
2023/05/16 18:28:38;;;;;;;5.20;1.90;;;;;;;10.61;60.34;95722.19;6220735;23;20160;-86
2023/05/16 18:31:06;;;;;;;4.63;1.90;;;;;;;10.65;61.19;95733.91;6246551;22;20185;-86
2023/05/16 18:34:03;;;;;;;8.17;2.10;;;;;;;10.26;60.59;95726.28;6218677;23;20173;-81
2023/05/16 18:36:28;;;;;;;3.50;1.50;;;;;;;10.39;60.64;95737.16;6243019;23;20157;-83
2023/05/16 18:38:54;;;;;;;3.83;1.70;;;;;;;10.47;60.85;95737.25;6244078;23;20644;-81
2023/05/16 18:41:19;;;;;;;3.60;1.53;;;;;;;10.33;60.77;95737.72;6218589;23;20177;-83
2023/05/16 18:43:44;;;;;;;6.17;1.70;;;;;;;10.17;61.30;95746.06;6243919;23;20169;-83
2023/05/16 18:46:10;;;;;;;3.73;1.80;;;;;;;10.17;60.67;95750.44;6242189;23;20493;-81
2023/05/16 18:48:35;;;;;;;5.17;2.17;;;;;;;10.08;61.15;95756.47;6217824;23;20172;-84
2023/05/16 18:51:00;;;;;;;5.43;1.87;;;;;;;10.00;61.10;95757.16;6243117;22;20177;-80
2023/05/16 18:53:26;;;;;;;4.97;1.60;;;;;;;10.01;60.65;95763.97;6242550;23;20180;-81
2023/05/16 18:55:51;;;;;;;3.50;1.50;;;;;;;9.79;59.74;95759.06;6217738;23;20232;-83
2023/05/16 18:58:16;;;;;;;5.77;1.80;;;;;;;9.77;59.88;95758.41;6218384;23;20145;-82
2023/05/16 19:00:42;;;;;;;7.13;1.40;;;;;;;9.72;58.75;95764.00;6243121;22;20263;-81
2023/05/16 19:03:08;;;;;;;4.13;1.30;;;;;;;9.62;59.27;95765.75;6242527;23;20473;-83
2023/05/16 19:05:34;;;;;;;4.40;1.37;;;;;;;9.68;58.41;95765.22;6239762;23;20161;-82
2023/05/16 19:07:59;;;;;;;4.57;1.40;;;;;;;9.71;58.66;95777.09;6239994;23;20165;-84
2023/05/16 19:10:24;;;;;;;4.80;1.30;;;;;;;9.53;57.95;95775.19;6240021;22;20315;-82
2023/05/16 19:12:51;;;;;;;3.60;1.60;;;;;;;9.51;58.36;95776.28;6241451;23;20339;-83
2023/05/16 19:15:17;;;;;;;5.27;1.40;;;;;;;9.56;58.14;95780.09;6241167;23;20152;-81
2023/05/16 19:17:42;;;;;;;4.23;1.60;;;;;;;9.59;58.41;95782.41;6214312;23;20161;-82
2023/05/16 19:20:08;;;;;;;4.63;1.60;;;;;;;9.48;59.29;95787.75;6216487;23;20173;-83
2023/05/16 19:22:34;;;;;;;5.83;1.37;;;;;;;9.49;58.70;95783.38;6217995;23;20154;-83
2023/05/16 19:24:59;;;;;;;3.37;1.40;;;;;;;9.53;58.14;95790.72;6242809;23;20161;-82
2023/05/16 19:27:27;;;;;;;6.30;1.73;;;;;;;9.36;58.12;95792.25;6240274;23;20594;-81
2023/05/16 19:29:53;;;;;;;4.43;1.50;;;;;;;9.26;58.16;95793.16;6239283;22;20188;-81
2023/05/16 19:32:18;;;;;;;2.57;1.47;;;;;;;9.28;58.44;95796.44;6240639;23;20231;-84
2023/05/16 19:34:45;;;;;;;5.50;1.40;;;;;;;9.32;58.61;95793.44;6244698;23;20160;-84
2023/05/16 19:37:11;;;;;;;4.50;1.23;;;;;;;9.28;58.11;95802.44;6244153;22;20927;-82
2023/05/16 19:39:36;;;;;;;2.80;1.30;;;;;;;9.28;58.33;95807.63;6216329;23;20189;-84
2023/05/16 19:42:02;;;;;;;3.50;1.33;;;;;;;9.12;58.61;95807.31;6241898;22;20207;-82
2023/05/16 19:44:27;;;;;;;2.57;1.30;;;;;;;8.94;58.90;95811.47;6215338;23;20196;-80
2023/05/16 19:46:53;;;;;;;4.00;1.50;;;;;;;9.03;58.63;95808.09;6215288;23;20247;-85
2023/05/16 19:49:18;;;;;;;3.10;1.30;;;;;;;9.00;58.71;95816.13;6215198;23;20189;-85
2023/05/16 19:51:43;;;;;;;6.13;1.70;;;;;;;9.02;58.52;95817.66;6242502;22;20630;-84
2023/05/16 19:54:09;;;;;;;5.40;1.77;;;;;;;8.95;58.61;95808.75;6240403;23;20188;-83
2023/05/16 19:56:34;;;;;;;8.37;1.40;;;;;;;8.93;58.62;95818.44;6240255;23;20153;-83
2023/05/16 19:58:59;;;;;;;5.83;1.23;;;;;;;8.83;58.51;95820.16;6241276;23;20168;-84
2023/05/16 20:01:25;;;;;;;5.07;1.67;;;;;;;8.74;58.89;95824.31;6241415;22;20188;-85
2023/05/16 20:03:50;;;;;;;2.70;1.50;;;;;;;8.90;58.91;95823.84;6240197;23;20157;-85
2023/05/16 20:06:16;;;;;;;5.10;1.40;;;;;;;8.76;59.22;95835.41;6239882;23;20188;-82
2023/05/16 20:08:42;;;;;;;2.77;1.20;;;;;;;8.79;59.49;95831.72;6243209;23;20149;-84
2023/05/16 20:11:08;;;;;;;3.63;1.40;;;;;;;8.79;60.06;95836.91;6239746;22;20197;-83
2023/05/16 20:13:34;;;;;;;3.57;1.23;;;;;;;8.66;60.52;95837.13;6240028;23;20188;-83
2023/05/16 20:15:59;;;;;;;2.77;1.30;;;;;;;8.68;60.49;95839.59;6238860;23;20214;-82
2023/05/16 20:18:25;;;;;;;3.63;1.27;;;;;;;8.58;61.11;95839.53;6241526;23;20598;-83
2023/05/16 20:20:50;;;;;;;3.43;1.33;;;;;;;8.63;61.18;95839.13;6240719;22;20177;-82
2023/05/16 20:23:16;;;;;;;1.63;1.10;;;;;;;8.63;61.57;95845.13;6240808;23;20153;-83
2023/05/16 20:25:42;;;;;;;5.70;1.57;;;;;;;8.60;62.09;95842.00;6242719;23;20236;-82
2023/05/16 20:28:07;;;;;;;2.80;1.33;;;;;;;8.51;61.83;95838.41;6215792;23;20760;-84
2023/05/16 20:30:45;;;;;;;3.17;1.40;;;;;;;8.60;62.45;95842.81;6240624;22;20181;-85
2023/05/16 20:33:10;;;;;;;5.30;1.40;;;;;;;8.55;60.85;95837.19;6268174;22;20585;-85
2023/05/16 20:35:36;;;;;;;5.43;1.57;;;;;;;8.54;60.79;95845.91;6242691;23;20157;-83
2023/05/16 20:38:01;;;;;;;4.87;1.40;;;;;;;8.55;60.12;95846.72;6242765;23;20164;-85
2023/05/16 20:40:26;;;;;;;4.37;1.47;;;;;;;8.59;59.39;95846.34;6242252;22;20219;-85
2023/05/16 20:42:52;;;;;;;3.93;1.23;;;;;;;8.58;58.95;95849.88;6218164;23;20157;-83
2023/05/16 20:45:17;;;;;;;4.87;1.50;;;;;;;8.66;58.80;95850.06;6242546;23;20173;-82
2023/05/16 20:47:42;;;;;;;4.73;1.40;;;;;;;8.55;58.60;95857.91;6242060;23;20164;-82